createdAt,value
2018-11-02T00:02:19.788Z,8.00
2018-11-02T00:04:48.134Z,9.17
2018-11-02T00:07:16.460Z,7.90
2018-11-02T00:09:44.708Z,8.37
2018-11-02T00:12:13.047Z,8.37
2018-11-02T00:14:41.249Z,7.90
2018-11-02T00:17:09.640Z,7.27
2018-11-02T00:19:37.917Z,6.83
2018-11-02T00:22:06.587Z,5.70
2018-11-02T00:24:34.881Z,7.80
2018-11-02T00:27:03.162Z,7.00
2018-11-02T00:29:32.675Z,6.27
2018-11-02T00:32:01.056Z,7.30
2018-11-02T00:34:29.500Z,7.60
2018-11-02T00:36:57.733Z,6.93
2018-11-02T00:39:26.105Z,7.67
2018-11-02T00:41:54.366Z,7.23
2018-11-02T00:44:22.631Z,6.40
2018-11-02T00:46:50.940Z,6.57
2018-11-02T00:49:19.390Z,6.53
2018-11-02T00:51:47.642Z,6.20
2018-11-02T00:54:15.909Z,6.23
2018-11-02T00:56:44.191Z,6.37
2018-11-02T00:59:12.474Z,5.87
2018-11-02T01:01:40.755Z,6.10
2018-11-02T01:04:09.024Z,6.03
2018-11-02T01:06:37.324Z,6.33
2018-11-02T01:09:07.822Z,6.43
2018-11-02T01:11:36.147Z,7.13
2018-11-02T01:14:04.425Z,6.57
2018-11-02T01:16:32.733Z,5.97
2018-11-02T01:19:00.994Z,6.47
2018-11-02T01:21:29.292Z,6.90
2018-11-02T01:23:57.573Z,5.73
2018-11-02T01:26:25.840Z,7.00
2018-11-02T01:28:54.103Z,6.50
2018-11-02T01:31:22.362Z,5.70
2018-11-02T01:33:50.782Z,6.27
2018-11-02T01:36:19.061Z,5.90
2018-11-02T01:38:47.361Z,6.23
2018-11-02T01:41:15.627Z,6.60
2018-11-02T01:43:43.888Z,7.77
2018-11-02T01:46:12.154Z,5.80
2018-11-02T01:48:40.637Z,5.50
2018-11-02T01:51:08.995Z,6.00
2018-11-02T01:53:37.279Z,5.93
2018-11-02T01:56:05.596Z,6.27
2018-11-02T01:58:33.868Z,5.47
2018-11-02T02:01:02.176Z,5.13
2018-11-02T02:03:30.514Z,5.93
2018-11-02T02:05:58.805Z,5.57
2018-11-02T02:08:27.051Z,5.73
2018-11-02T02:10:55.306Z,5.37
2018-11-02T02:13:23.631Z,5.20
2018-11-02T02:15:51.884Z,5.57
2018-11-02T02:18:20.135Z,6.23
2018-11-02T02:20:48.410Z,6.23
2018-11-02T02:23:16.685Z,5.10
2018-11-02T02:25:44.952Z,5.67
2018-11-02T02:28:13.238Z,5.80
2018-11-02T02:30:41.501Z,5.30
2018-11-02T02:33:09.759Z,5.83
2018-11-02T02:35:38.056Z,6.33
2018-11-02T02:38:06.297Z,7.70
2018-11-02T02:40:34.573Z,6.83
2018-11-02T02:43:02.831Z,6.17
2018-11-02T02:45:31.100Z,6.63
2018-11-02T02:47:59.385Z,7.00
2018-11-02T02:50:27.657Z,7.00
2018-11-02T02:52:55.939Z,6.43
2018-11-02T02:55:24.200Z,8.90
2018-11-02T02:57:59.013Z,9.00
2018-11-02T03:00:27.321Z,6.80
2018-11-02T03:02:55.585Z,7.80
2018-11-02T03:05:23.883Z,5.90
2018-11-02T03:07:52.142Z,6.43
2018-11-02T03:10:20.455Z,6.30
2018-11-02T03:12:48.750Z,7.07
2018-11-02T03:15:17.002Z,7.53
2018-11-02T03:17:45.269Z,6.53
2018-11-02T03:20:13.526Z,5.80
2018-11-02T03:22:41.835Z,4.90
2018-11-02T03:25:11.284Z,5.27
2018-11-02T03:27:39.856Z,5.50
2018-11-02T03:30:15.429Z,5.07
2018-11-02T03:32:43.709Z,6.00
2018-11-02T03:35:11.971Z,6.00
2018-11-02T03:37:40.336Z,7.80
2018-11-02T03:40:09.708Z,7.33
2018-11-02T03:42:38.056Z,6.33
2018-11-02T03:45:06.456Z,4.83
2018-11-02T03:47:34.781Z,5.30
2018-11-02T03:50:03.182Z,4.73
2018-11-02T03:52:31.514Z,4.83
2018-11-02T03:54:59.795Z,5.00
2018-11-02T03:57:28.138Z,4.93
2018-11-02T03:59:56.316Z,4.97
2018-11-02T04:02:24.576Z,4.97
2018-11-02T04:04:52.833Z,4.63
2018-11-02T04:07:21.129Z,4.73
2018-11-02T04:09:49.593Z,4.57
2018-11-02T04:12:17.864Z,4.90
2018-11-02T04:15:08.837Z,5.10
2018-11-02T04:17:37.463Z,5.77
2018-11-02T04:20:07.126Z,4.43
2018-11-02T04:22:35.400Z,5.43
2018-11-02T04:25:03.688Z,5.03
2018-11-02T04:27:31.972Z,5.70
2018-11-02T04:30:00.263Z,4.87
2018-11-02T04:32:28.539Z,5.73
2018-11-02T04:34:57.006Z,5.10
2018-11-02T04:37:25.296Z,5.33
2018-11-02T04:39:53.576Z,4.63
2018-11-02T04:42:21.804Z,4.63
2018-11-02T04:44:50.067Z,5.40
2018-11-02T04:47:18.345Z,6.23
2018-11-02T04:49:46.625Z,5.07
2018-11-02T04:52:14.873Z,4.37
2018-11-02T04:54:43.171Z,4.43
2018-11-02T04:57:11.409Z,4.23
2018-11-02T04:59:39.675Z,5.13
2018-11-02T05:02:07.970Z,4.23
2018-11-02T05:04:36.221Z,4.43
2018-11-02T05:07:04.794Z,4.80
2018-11-02T05:09:33.059Z,4.50
2018-11-02T05:12:01.369Z,4.77
2018-11-02T05:14:29.624Z,4.53
2018-11-02T05:16:57.864Z,4.23
2018-11-02T05:19:26.156Z,4.10
2018-11-02T05:21:54.400Z,6.07
2018-11-02T05:24:22.650Z,4.87
2018-11-02T05:26:50.903Z,4.83
2018-11-02T05:29:19.150Z,6.93
2018-11-02T05:31:47.403Z,5.53
2018-11-02T05:34:16.469Z,6.17
2018-11-02T05:36:44.741Z,5.43
2018-11-02T05:39:13.408Z,5.30
2018-11-02T05:41:41.638Z,4.90
2018-11-02T05:44:09.922Z,4.50
2018-11-02T05:46:38.172Z,4.20
2018-11-02T05:49:06.424Z,5.70
2018-11-02T05:51:34.684Z,5.10
2018-11-02T05:54:02.919Z,5.13
2018-11-02T05:56:31.524Z,5.17
2018-11-02T05:58:59.795Z,5.20
2018-11-02T06:01:28.093Z,4.80
2018-11-02T06:03:56.312Z,4.73
2018-11-02T06:06:24.549Z,5.33
2018-11-02T06:08:52.816Z,4.40
2018-11-02T06:11:21.051Z,4.67
2018-11-02T06:13:49.315Z,4.50
2018-11-02T06:16:17.585Z,4.63
2018-11-02T06:18:45.996Z,4.60
2018-11-02T06:21:14.757Z,5.73
2018-11-02T06:23:43.059Z,5.87
2018-11-02T06:26:11.280Z,5.20
2018-11-02T06:28:39.535Z,5.37
2018-11-02T06:31:08.510Z,6.17
2018-11-02T06:33:36.876Z,5.40
2018-11-02T06:36:05.692Z,4.70
2018-11-02T06:38:33.973Z,5.00
2018-11-02T06:41:02.233Z,5.00
2018-11-02T06:43:42.712Z,5.57
2018-11-02T06:46:10.964Z,5.07
2018-11-02T06:48:39.225Z,5.00
2018-11-02T06:51:07.776Z,5.60
2018-11-02T06:53:36.235Z,5.07
2018-11-02T06:56:04.661Z,5.17
2018-11-02T06:58:32.909Z,6.73
2018-11-02T07:01:01.186Z,8.03
2018-11-02T07:03:29.429Z,8.53
2018-11-02T07:05:57.888Z,8.10
2018-11-02T07:08:26.468Z,6.73
2018-11-02T07:10:54.607Z,6.23
2018-11-02T07:13:22.870Z,5.40
2018-11-02T07:15:51.228Z,6.30
2018-11-02T07:18:19.500Z,6.30
2018-11-02T07:20:47.952Z,6.17
2018-11-02T07:23:16.239Z,5.63
2018-11-02T07:25:44.516Z,6.40
2018-11-02T07:28:12.813Z,6.40
2018-11-02T07:30:41.293Z,6.60
2018-11-02T07:33:09.571Z,7.97
2018-11-02T07:35:37.836Z,6.60
2018-11-02T07:38:06.181Z,6.77
2018-11-02T07:40:34.427Z,6.47
2018-11-02T07:43:02.737Z,6.80
2018-11-02T07:45:30.996Z,6.87
2018-11-02T07:47:59.266Z,7.33
2018-11-02T07:50:27.567Z,7.70
2018-11-02T07:52:55.840Z,7.80
2018-11-02T07:55:24.128Z,7.00
2018-11-02T07:57:52.440Z,6.60
2018-11-02T08:00:20.709Z,6.33
2018-11-02T08:02:49.120Z,7.13
2018-11-02T08:05:17.391Z,7.33
2018-11-02T08:07:45.704Z,6.60
2018-11-02T08:10:13.956Z,7.60
2018-11-02T08:12:42.237Z,7.07
2018-11-02T08:15:11.605Z,7.73
2018-11-02T08:17:40.659Z,8.67
2018-11-02T08:20:09.978Z,10.70
2018-11-02T08:22:38.327Z,8.47
2018-11-02T08:25:07.582Z,12.43
2018-11-02T08:27:35.860Z,13.67
2018-11-02T08:30:04.198Z,10.13
2018-11-02T08:32:32.466Z,11.70
2018-11-02T08:35:00.721Z,13.57
2018-11-02T08:37:28.998Z,10.40
2018-11-02T08:39:57.446Z,10.90
2018-11-02T08:42:25.726Z,9.20
2018-11-02T08:44:53.965Z,9.03
2018-11-02T08:47:22.231Z,9.27
2018-11-02T08:49:50.518Z,11.87
2018-11-02T08:52:18.984Z,12.00
2018-11-02T08:54:47.215Z,10.43
2018-11-02T08:57:15.483Z,9.53
2018-11-02T08:59:43.940Z,10.40
2018-11-02T09:02:12.133Z,8.43
2018-11-02T09:04:40.600Z,9.60
2018-11-02T09:07:08.886Z,8.40
2018-11-02T09:09:37.280Z,9.10
2018-11-02T09:12:05.548Z,9.83
2018-11-02T09:14:33.823Z,9.33
2018-11-02T09:17:02.102Z,7.63
2018-11-02T09:19:30.449Z,7.93
2018-11-02T09:21:58.640Z,8.57
2018-11-02T09:24:26.909Z,7.80
2018-11-02T09:26:55.225Z,7.77
2018-11-02T09:29:23.437Z,7.23
2018-11-02T09:31:51.710Z,7.47
2018-11-02T09:34:19.962Z,6.93
2018-11-02T09:36:48.352Z,7.20
2018-11-02T09:39:16.643Z,8.23
2018-11-02T09:41:44.905Z,9.27
2018-11-02T09:44:13.214Z,9.73
2018-11-02T09:46:41.480Z,9.23
2018-11-02T09:49:09.772Z,10.47
2018-11-02T09:51:38.122Z,10.17
2018-11-02T09:54:06.412Z,8.60
2018-11-02T09:56:34.716Z,7.53
2018-11-02T09:59:02.989Z,8.27
2018-11-02T10:01:31.251Z,8.13
2018-11-02T10:03:59.516Z,8.57
2018-11-02T10:06:28.101Z,8.50
2018-11-02T10:08:56.403Z,8.00
2018-11-02T10:11:24.761Z,8.13
2018-11-02T10:13:53.021Z,7.57
2018-11-02T10:16:21.405Z,7.50
2018-11-02T10:18:49.687Z,6.77
2018-11-02T10:21:17.959Z,7.63
2018-11-02T10:23:46.288Z,7.03
2018-11-02T10:26:14.525Z,6.90
2018-11-02T10:28:42.891Z,7.70
2018-11-02T10:31:11.177Z,6.80
2018-11-02T10:33:39.504Z,7.03
2018-11-02T10:36:07.968Z,6.37
2018-11-02T10:38:36.258Z,7.47
2018-11-02T10:41:05.379Z,7.00
2018-11-02T10:43:33.760Z,7.10
2018-11-02T10:46:02.450Z,7.87
2018-11-02T10:48:30.718Z,7.07
2018-11-02T10:50:59.079Z,6.73
2018-11-02T10:53:27.317Z,5.27
2018-11-02T10:55:55.577Z,5.53
2018-11-02T10:58:23.921Z,5.50
2018-11-02T11:00:57.625Z,5.07
2018-11-02T11:03:26.192Z,5.13
2018-11-02T11:05:54.528Z,4.30
2018-11-02T11:08:22.794Z,3.83
2018-11-02T11:10:51.043Z,3.37
2018-11-02T11:13:19.603Z,3.13
2018-11-02T11:15:47.567Z,2.50
2018-11-02T11:18:15.876Z,2.30
2018-11-02T11:20:44.212Z,2.53
2018-11-02T11:23:12.581Z,2.63
2018-11-02T11:25:40.958Z,2.70
2018-11-02T11:28:09.268Z,2.43
2018-11-02T11:30:37.554Z,2.77
2018-11-02T11:33:05.862Z,3.00
2018-11-02T11:35:34.153Z,3.07
2018-11-02T11:38:03.494Z,2.90
2018-11-02T11:40:31.745Z,2.10
2018-11-02T11:43:00.014Z,2.17
2018-11-02T11:45:28.301Z,2.17
2018-11-02T11:47:56.628Z,1.83
2018-11-02T11:50:25.023Z,2.30
2018-11-02T11:52:54.209Z,1.63
2018-11-02T11:55:22.497Z,1.67
2018-11-02T11:57:53.676Z,1.77
2018-11-02T12:00:22.992Z,1.80
2018-11-02T12:02:51.981Z,1.77
2018-11-02T12:05:21.593Z,1.53
2018-11-02T12:07:49.997Z,2.47
2018-11-02T12:10:23.651Z,2.17
2018-11-02T12:12:52.016Z,2.00
2018-11-02T12:15:21.440Z,2.03
2018-11-02T12:17:50.136Z,2.20
2018-11-02T12:20:20.941Z,2.60
2018-11-02T12:22:50.201Z,2.13
2018-11-02T12:25:18.500Z,2.30
2018-11-02T12:27:46.778Z,2.30
2018-11-02T12:30:16.361Z,2.10
2018-11-02T12:32:44.635Z,2.07
2018-11-02T12:35:14.237Z,2.30
2018-11-02T12:37:42.625Z,2.10
2018-11-02T12:40:16.763Z,1.90
2018-11-02T12:42:45.806Z,1.90
2018-11-02T12:45:15.500Z,1.80
2018-11-02T12:47:44.644Z,2.23
2018-11-02T12:50:15.509Z,1.97
2018-11-02T12:52:44.655Z,2.17
2018-11-02T12:55:13.804Z,2.00
2018-11-02T12:57:42.577Z,1.93
2018-11-02T13:00:13.804Z,1.60
2018-11-02T13:02:43.375Z,2.07
2018-11-02T13:05:11.936Z,1.80
2018-11-02T13:07:40.543Z,2.07
2018-11-02T13:10:10.273Z,2.07
2018-11-02T13:12:38.609Z,1.50
2018-11-02T13:15:08.547Z,1.77
2018-11-02T13:17:36.876Z,1.80
2018-11-02T13:20:05.795Z,2.00
2018-11-02T13:22:34.059Z,1.80
2018-11-02T13:25:02.468Z,1.73
2018-11-02T13:27:30.731Z,1.90
2018-11-02T13:29:59.103Z,2.10
2018-11-02T13:32:27.338Z,2.10
2018-11-02T13:34:55.616Z,2.27
2018-11-02T13:37:23.889Z,2.43
2018-11-02T13:39:52.169Z,2.30
2018-11-02T13:42:20.457Z,2.70
2018-11-02T13:44:48.893Z,2.70
2018-11-02T13:47:17.169Z,2.60
2018-11-02T13:49:45.448Z,2.47
2018-11-02T13:52:13.692Z,2.47
2018-11-02T13:54:41.980Z,2.10
2018-11-02T13:57:10.245Z,2.03
2018-11-02T13:59:38.683Z,2.23
2018-11-02T14:02:07.752Z,2.10
2018-11-02T14:04:36.060Z,2.10
2018-11-02T14:07:04.297Z,2.40
2018-11-02T14:09:32.572Z,2.37
2018-11-02T14:12:00.975Z,2.47
2018-11-02T14:14:29.241Z,2.33
2018-11-02T14:16:57.524Z,3.10
2018-11-02T14:19:25.826Z,2.73
2018-11-02T14:21:54.149Z,1.97
2018-11-02T14:24:22.437Z,1.90
2018-11-02T14:26:51.013Z,2.20
2018-11-02T14:29:25.777Z,2.20
2018-11-02T14:31:54.008Z,1.80
2018-11-02T14:34:22.292Z,1.70
2018-11-02T14:36:50.580Z,2.00
2018-11-02T14:39:18.837Z,1.80
2018-11-02T14:41:47.165Z,1.90
2018-11-02T14:44:15.440Z,1.83
2018-11-02T14:46:43.817Z,2.00
2018-11-02T14:49:12.012Z,1.77
2018-11-02T14:51:40.318Z,2.20
2018-11-02T14:54:08.577Z,2.40
2018-11-02T14:56:36.868Z,1.73
2018-11-02T14:59:05.238Z,1.60
2018-11-02T15:01:33.606Z,1.80
2018-11-02T15:04:01.887Z,1.40
2018-11-02T15:06:30.225Z,1.50
2018-11-02T15:08:58.519Z,1.40
2018-11-02T15:11:26.862Z,1.40
2018-11-02T15:13:55.074Z,1.40
2018-11-02T15:16:23.372Z,1.60
2018-11-02T15:18:51.680Z,1.57
2018-11-02T15:21:19.991Z,1.53
2018-11-02T15:23:48.309Z,1.40
2018-11-02T15:26:16.648Z,1.80
2018-11-02T15:28:44.921Z,2.23
2018-11-02T15:31:13.240Z,1.90
2018-11-02T15:33:42.172Z,1.63
2018-11-02T15:36:10.453Z,1.70
2018-11-02T15:38:38.995Z,2.20
2018-11-02T15:41:07.313Z,2.77
2018-11-02T15:43:35.674Z,2.20
2018-11-02T15:46:03.968Z,1.90
2018-11-02T15:48:32.205Z,1.80
2018-11-02T15:51:00.513Z,1.60
2018-11-02T15:53:28.903Z,2.00
2018-11-02T15:55:57.177Z,2.50
2018-11-02T15:58:25.423Z,4.33
2018-11-02T16:00:53.727Z,9.17
2018-11-02T16:03:22.025Z,19.23
2018-11-02T16:05:50.373Z,19.47
2018-11-02T16:08:18.662Z,14.50
2018-11-02T16:10:46.940Z,10.57
2018-11-02T16:13:15.216Z,5.77
2018-11-02T16:15:43.508Z,5.10
2018-11-02T16:18:11.861Z,4.37
2018-11-02T16:20:40.135Z,3.67
2018-11-02T16:23:08.474Z,3.60
2018-11-02T16:25:36.710Z,3.20
2018-11-02T16:28:05.061Z,3.17
2018-11-02T16:30:33.325Z,2.93
2018-11-02T16:33:01.607Z,2.90
2018-11-02T16:35:29.945Z,3.50
2018-11-02T16:37:58.251Z,3.20
2018-11-02T16:40:26.531Z,3.43
2018-11-02T16:42:54.820Z,3.73
2018-11-02T16:45:23.479Z,3.73
2018-11-02T16:47:51.837Z,4.07
2018-11-02T16:50:20.125Z,3.30
2018-11-02T16:52:48.668Z,3.30
2018-11-02T16:55:16.999Z,3.60
2018-11-02T16:57:45.510Z,5.53
2018-11-02T17:00:15.839Z,3.60
2018-11-02T17:02:45.081Z,3.30
2018-11-02T17:05:13.348Z,3.63
2018-11-02T17:07:42.402Z,6.97
2018-11-02T17:10:12.261Z,13.30
2018-11-02T17:12:41.285Z,8.47
2018-11-02T17:15:10.241Z,5.73
2018-11-02T17:17:38.512Z,8.00
2018-11-02T17:20:10.994Z,10.73
2018-11-02T17:22:39.436Z,7.97
2018-11-02T17:25:08.577Z,7.97
2018-11-02T17:27:37.370Z,8.67
2018-11-02T17:30:07.245Z,8.60
2018-11-02T17:32:35.543Z,8.87
2018-11-02T17:35:03.968Z,8.00
2018-11-02T17:37:32.280Z,7.63
2018-11-02T17:40:00.553Z,7.13
2018-11-02T17:42:28.846Z,8.27
2018-11-02T17:44:57.526Z,5.77
2018-11-02T17:47:25.900Z,5.20
2018-11-02T17:49:54.736Z,4.57
2018-11-02T17:52:23.317Z,3.73
2018-11-02T17:54:51.596Z,3.23
2018-11-02T17:57:19.929Z,3.70
2018-11-02T17:59:48.345Z,3.33
2018-11-02T18:02:16.684Z,3.60
2018-11-02T18:04:44.949Z,3.70
2018-11-02T18:07:13.232Z,4.17
2018-11-02T18:09:41.589Z,4.60
2018-11-02T18:12:10.771Z,4.40
2018-11-02T18:14:39.141Z,5.00
2018-11-02T18:17:07.374Z,4.90
2018-11-02T18:19:35.762Z,5.87
2018-11-02T18:22:04.698Z,5.17
2018-11-02T18:24:33.275Z,4.97
2018-11-02T18:27:01.567Z,5.67
2018-11-02T18:29:29.929Z,6.00
2018-11-02T18:31:59.430Z,6.23
2018-11-02T18:34:27.925Z,5.63
2018-11-02T18:36:57.373Z,6.27
2018-11-02T18:39:25.707Z,6.40
2018-11-02T18:41:54.077Z,6.67
2018-11-02T18:44:23.491Z,6.10
2018-11-02T18:46:53.814Z,6.23
2018-11-02T18:49:22.272Z,5.97
2018-11-02T18:51:50.637Z,6.67
2018-11-02T18:54:19.110Z,6.13
2018-11-02T18:56:48.437Z,5.80
2018-11-02T18:59:16.728Z,6.33
2018-11-02T19:01:45.088Z,6.17
2018-11-02T19:04:13.484Z,5.73
2018-11-02T19:06:41.727Z,5.70
2018-11-02T19:09:10.357Z,5.13
2018-11-02T19:11:38.928Z,5.47
2018-11-02T19:14:07.217Z,5.87
2018-11-02T19:16:35.587Z,5.00
2018-11-02T19:19:03.878Z,4.87
2018-11-02T19:21:32.223Z,4.60
2018-11-02T19:24:00.460Z,5.30
2018-11-02T19:26:28.729Z,5.50
2018-11-02T19:28:57.006Z,5.23
2018-11-02T19:31:25.324Z,5.33
2018-11-02T19:34:00.129Z,5.80
2018-11-02T19:36:28.903Z,6.47
2018-11-02T19:38:57.184Z,6.70
2018-11-02T19:41:25.571Z,6.07
2018-11-02T19:43:53.964Z,6.23
2018-11-02T19:46:22.371Z,6.87
2018-11-02T19:48:50.712Z,6.83
2018-11-02T19:51:18.997Z,5.90
2018-11-02T19:53:47.326Z,6.83
2018-11-02T19:56:15.691Z,6.20
2018-11-02T19:58:44.023Z,6.63
2018-11-02T20:01:12.421Z,6.27
2018-11-02T20:03:40.593Z,8.57
2018-11-02T20:06:08.906Z,9.30
2018-11-02T20:08:37.186Z,8.57
2018-11-02T20:11:05.606Z,7.53
2018-11-02T20:13:33.950Z,8.47
2018-11-02T20:16:02.173Z,8.00
2018-11-02T20:18:30.481Z,7.57
2018-11-02T20:20:58.802Z,6.67
2018-11-02T20:23:27.684Z,6.93
2018-11-02T20:25:56.031Z,7.10
2018-11-02T20:28:25.129Z,7.90
2018-11-02T20:30:53.383Z,7.77
2018-11-02T20:33:22.076Z,6.53
2018-11-02T20:35:50.437Z,7.17
2018-11-02T20:38:18.868Z,6.00
2018-11-02T20:40:48.238Z,5.77
2018-11-02T20:43:16.830Z,6.60
2018-11-02T20:45:45.472Z,6.30
2018-11-02T20:48:13.831Z,6.67
2018-11-02T20:50:42.459Z,5.87
2018-11-02T20:53:10.954Z,5.53
2018-11-02T20:55:39.281Z,5.83
2018-11-02T20:58:10.754Z,5.70
2018-11-02T21:00:42.522Z,6.00
2018-11-02T21:03:12.816Z,6.00
2018-11-02T21:05:42.931Z,5.97
2018-11-02T21:08:14.978Z,6.10
2018-11-02T21:10:47.215Z,6.73
2018-11-02T21:13:15.661Z,6.50
2018-11-02T21:15:43.961Z,6.00
2018-11-02T21:18:12.333Z,6.53
2018-11-02T21:20:41.263Z,5.70
2018-11-02T21:23:10.187Z,5.30
2018-11-02T21:25:40.367Z,5.77
2018-11-02T21:28:09.583Z,5.50
2018-11-02T21:30:38.029Z,5.77
2018-11-02T21:33:06.446Z,6.33
2018-11-02T21:35:34.783Z,6.23
2018-11-02T21:38:03.215Z,5.83
2018-11-02T21:40:31.528Z,4.93
2018-11-02T21:42:59.772Z,5.07
2018-11-02T21:45:28.152Z,5.40
2018-11-02T21:47:56.512Z,4.67
2018-11-02T21:50:24.948Z,4.90
2018-11-02T21:52:53.208Z,5.33
2018-11-02T21:55:21.528Z,5.63
2018-11-02T21:57:49.880Z,5.23
2018-11-02T22:00:19.854Z,5.07
2018-11-02T22:02:49.299Z,5.73
2018-11-02T22:05:17.679Z,4.67
2018-11-02T22:07:47.397Z,5.40
2018-11-02T22:10:16.110Z,5.07
2018-11-02T22:12:44.455Z,5.30
2018-11-02T22:15:12.835Z,5.37
2018-11-02T22:17:41.630Z,4.97
2018-11-02T22:20:11.558Z,5.17
2018-11-02T22:22:40.216Z,5.00
2018-11-02T22:25:09.169Z,4.40
2018-11-02T22:27:37.492Z,4.67
2018-11-02T22:30:08.633Z,4.77
2018-11-02T22:32:37.075Z,4.50
2018-11-02T22:35:05.448Z,5.33
2018-11-02T22:37:33.759Z,5.03
2018-11-02T22:40:02.125Z,6.00
2018-11-02T22:42:30.409Z,5.50
2018-11-02T22:44:58.769Z,5.03
2018-11-02T22:47:27.068Z,4.77
2018-11-02T22:49:55.327Z,4.90
2018-11-02T22:52:23.724Z,4.87
2018-11-02T22:54:51.979Z,5.43
2018-11-02T22:57:20.327Z,4.90
2018-11-02T22:59:48.659Z,5.17
2018-11-02T23:02:17.045Z,5.00
2018-11-02T23:04:45.331Z,4.93
2018-11-02T23:07:13.709Z,5.03
2018-11-02T23:09:42.104Z,4.40
2018-11-02T23:12:10.433Z,4.07
2018-11-02T23:14:38.713Z,4.30
2018-11-02T23:17:07.227Z,4.20
2018-11-02T23:19:35.659Z,4.17
2018-11-02T23:22:03.828Z,4.13
2018-11-02T23:24:32.131Z,4.03
2018-11-02T23:27:00.369Z,3.90
2018-11-02T23:29:28.735Z,4.03
2018-11-02T23:31:57.129Z,3.80
2018-11-02T23:34:25.495Z,3.73
2018-11-02T23:36:53.834Z,3.70
2018-11-02T23:39:22.140Z,3.90
2018-11-02T23:41:50.464Z,4.00
2018-11-02T23:44:18.735Z,3.30
2018-11-02T23:46:48.051Z,3.73
2018-11-02T23:49:16.328Z,3.70
2018-11-02T23:51:44.616Z,4.43
2018-11-02T23:54:12.857Z,4.20
2018-11-02T23:56:41.165Z,3.80
2018-11-02T23:59:09.425Z,3.53
